KSNK/SNK METAR and TAF weather

Enter ICAO airport designator
Station Type Date Time Source
KSNK METAR 2021/07/30 06:35 UTC NOAA

KSNK 300635Z AUTO 13005KT 10SM CLR 26/19 A3012 RMK AO2 T02550185


Station Type Date Time Source
KSNK Decoded METAR 2021/07/30 06:35 UTC NOAA

Snyder, Winston Field Airport, TX, United States (KSNK) 32-41-36N 100-57-01W
Jul 30, 2021 - 02:35 AM EDT / 2021.07.30 0635 UTC
Wind: from the SE (130 degrees) at 6 MPH (5 KT):0
Visibility: 10 mile(s):0
Sky conditions: clear
Temperature: 77.9 F (25.5 C)
Dew Point: 65.3 F (18.5 C)
Relative Humidity: 65%
Pressure (altimeter): 30.12 in. Hg (1019 hPa)
ob: KSNK 300635Z AUTO 13005KT 10SM CLR 26/19 A3012 RMK AO2 T02550185
cycle: 6

Station Type Date Time Source
KSNK TAF UTC NOAA

Error!

Example: see airport list